Airfield :







YOU CAN JOIN US ON...

 
LOGIN :

Register | Disclaimer

   EN    FR    IT 

 









Legend :    VFR   Marginal VFR   IFR   Intensive IFR   Very Intensive IFR
Visi :
Ceiling :
>= 8 km
>= 3000ft
5 to 8 km
1000 to 3000 ft
1500m to 5 km
500 to 1000 ft
800 to 1500m
200 to 500 ft
< 800m
< 200 ft
Symbols :   Thunderstorms  Fog  Heavy snow  Heavy precipitations  Wind > 20 kt






- Airport Elevation : 169 ft
- IATA code : BGI


TBPB - Grantley Adams Int.

CURRENT METAR :
  • 302000Z 09013KT 9999 FEW018 29/24 Q1011 NOSIG

EXPIRED METARs :
  • 301900Z 10012KT 9999 VCSH SCT016 28/24 Q1011 NOSIG
  • 301800Z 10015KT 9999 VCSH SCT016 30/25 Q1012 NOSIG

TAF TAF TBPB
Valid from the 30 at 18:00 until the 01 at 18:00 UTC


301700Z 3018/0118 09015KT 9999 SCT018
TTZP FIR / North America



MET'MAP, your aeronautical weather chart ! - Copyright ORBIFLY December 2007 - Disclaimer

ORBIFLY MET'MAP TEAM :

Programming & Development : Alexandra Zaïnal
Concept & original design : Baudouin d'Aumeries
Assistance for programming : Marc-Olivier Méhu
Technical & hardware support : Manuel Goepfert

Contact : metmap@orbifly.com




SOURCES & CREDITS :

   NOAA